Aviation Digital Data Service (ADDS)

Output produced by METARs form (0848 UTC 25 April 2015)
found at http://aviationweather.gov/adds/metars/
 
KLAS 250846Z 2509/2606 19012G20KT P6SM FEW120 SCT200 
     FM251500 20015G25KT P6SM SCT080 BKN200 
     FM251900 20022G32KT P6SM SCT080 BKN120 
     FM260100 31015G25KT P6SM VCSH BKN080 OVC120